createdAt,value
2019-02-12T18:59:57.735Z,11.81
2019-02-12T18:59:57.855Z,49.12
2019-02-12T18:59:58.045Z,50.83
2019-02-12T18:59:58.186Z,48.42
2019-02-12T18:59:58.336Z,50.54
2019-02-12T18:59:58.491Z,48.52
2019-02-12T18:59:58.590Z,48.52
2019-02-12T18:59:58.744Z,49.02
2019-02-12T18:59:58.870Z,49.12
2019-02-12T18:59:59.007Z,48.66
2019-02-12T18:59:59.178Z,48.09
2019-02-12T18:59:59.327Z,41.6
2019-02-12T18:59:59.453Z,41.36
2019-02-12T18:59:59.563Z,40.45
2019-02-12T18:59:59.667Z,41.67
2019-02-12T18:59:59.814Z,39.38
2019-02-12T18:59:59.983Z,42.02
2019-02-12T19:00:00.219Z,39.75
2019-02-12T19:00:00.335Z,40.4
2019-02-12T19:00:00.377Z,39.91
2019-02-12T19:00:00.539Z,42.32
2019-02-12T19:00:00.678Z,46.03
2019-02-12T19:00:00.818Z,47.57
2019-02-12T19:00:01.020Z,46.65
2019-02-12T19:00:01.148Z,42.83
2019-02-12T19:00:01.304Z,39.74
2019-02-12T19:00:01.425Z,39.21
2019-02-12T19:00:01.540Z,42.36
2019-02-12T19:00:01.637Z,41.13
2019-02-12T19:00:02.175Z,48.02
2019-02-12T19:00:02.487Z,46.25
2019-02-12T19:00:02.647Z,46.07
2019-02-12T19:00:02.803Z,48.31
2019-02-12T19:00:02.943Z,47.84
2019-02-12T19:00:03.077Z,47.74
2019-02-12T19:00:03.179Z,47.65
2019-02-12T19:00:03.344Z,50.33
2019-02-12T19:00:03.451Z,50.17
2019-02-12T19:00:03.613Z,55.68
2019-02-12T19:00:03.760Z,55.11
2019-02-12T19:00:03.922Z,59.33
2019-02-12T19:00:04.075Z,60.46
2019-02-12T19:00:04.187Z,60.34
2019-02-12T19:00:04.355Z,60.14
2019-02-12T19:00:04.485Z,61.38
2019-02-12T19:00:04.682Z,62.89
2019-02-12T19:00:04.850Z,62.77
2019-02-12T19:00:04.975Z,65.3
2019-02-12T19:00:05.118Z,62.7
2019-02-12T19:00:05.246Z,65.94
2019-02-12T19:00:05.417Z,64.71
2019-02-12T19:00:05.513Z,66.82
2019-02-12T19:00:05.685Z,67.52
2019-02-12T19:00:05.826Z,65.19
2019-02-12T19:00:05.970Z,71.94
2019-02-12T19:00:06.145Z,70.14
2019-02-12T19:00:06.266Z,67.72
2019-02-12T19:00:06.403Z,66.51
2019-02-12T19:00:06.552Z,68.04
2019-02-12T19:00:06.718Z,64.6
2019-02-12T19:00:06.882Z,67.06
2019-02-12T19:00:07.038Z,68.99
2019-02-12T19:00:07.189Z,69.05
2019-02-12T19:00:07.362Z,70.58
2019-02-12T19:00:07.513Z,67.21
2019-02-12T19:00:07.609Z,65.57
2019-02-12T19:00:07.760Z,64
2019-02-12T19:00:07.928Z,69.73
2019-02-12T19:00:08.053Z,68.64
2019-02-12T19:00:08.259Z,66.13
2019-02-12T19:00:08.398Z,61.68
2019-02-12T19:00:08.531Z,71.08
2019-02-12T19:00:08.667Z,63.49
2019-02-12T19:00:08.850Z,56.99
2019-02-12T19:00:08.976Z,45.55
2019-02-12T19:00:09.409Z,42.41
2019-02-12T19:00:09.813Z,47.74
2019-02-12T19:00:09.978Z,49.5
2019-02-12T19:00:10.126Z,54.33
2019-02-12T19:00:10.297Z,54.87
2019-02-12T19:00:10.428Z,50.62
2019-02-12T19:00:10.595Z,50.33
2019-02-12T19:00:10.716Z,49.72
2019-02-12T19:00:10.823Z,47.99
2019-02-12T19:00:10.961Z,44.42
2019-02-12T19:00:11.143Z,44.69
2019-02-12T19:00:11.234Z,38.88
2019-02-12T19:00:11.381Z,34.59
2019-02-12T19:00:11.538Z,33.78
2019-02-12T19:00:11.654Z,33.61
2019-02-12T19:00:11.784Z,32.32
2019-02-12T19:00:11.933Z,34.26
2019-02-12T19:00:12.121Z,36.07
2019-02-12T19:00:12.280Z,35.34
2019-02-12T19:00:12.413Z,37.92
2019-02-12T19:00:12.527Z,39
2019-02-12T19:00:12.733Z,39.01
2019-02-12T19:00:12.915Z,37.7
2019-02-12T19:00:13.043Z,36.56
2019-02-12T19:00:13.224Z,36.29
2019-02-12T19:00:13.368Z,37.87
2019-02-12T19:00:13.461Z,36.32
2019-02-12T19:00:13.599Z,32.52
2019-02-12T19:00:13.727Z,33.4
2019-02-12T19:00:13.920Z,33.85
2019-02-12T19:00:14.047Z,31.69
2019-02-12T19:00:14.210Z,31.3
2019-02-12T19:00:14.322Z,29.19
2019-02-12T19:00:14.454Z,30.96
2019-02-12T19:00:14.609Z,30.85
2019-02-12T19:00:14.760Z,29.94
2019-02-12T19:00:14.881Z,30.58
2019-02-12T19:00:14.997Z,29.49
2019-02-12T19:00:15.177Z,30.5
2019-02-12T19:00:15.273Z,30.73
2019-02-12T19:00:15.448Z,30.64
2019-02-12T19:00:15.627Z,26.14
2019-02-12T19:00:15.685Z,26.55
2019-02-12T19:00:15.834Z,25.99
2019-02-12T19:00:16.020Z,27.76
2019-02-12T19:00:16.101Z,29.09
2019-02-12T19:00:16.204Z,28.2
2019-02-12T19:00:16.391Z,24.35
2019-02-12T19:00:16.516Z,16.94
2019-02-12T19:00:16.666Z,12.01
2019-02-12T19:00:16.798Z,4.92
2019-02-12T19:00:16.936Z,4.4
2019-02-12T19:00:17.058Z,3.97
2019-02-12T19:00:17.200Z,3.79
2019-02-12T19:00:17.331Z,3.89
2019-02-12T19:00:17.516Z,3.68
2019-02-12T19:00:17.671Z,3.69
2019-02-12T19:00:17.727Z,3.37
2019-02-12T19:00:17.874Z,3.55
2019-02-12T19:00:18.088Z,5.25
2019-02-12T19:00:18.164Z,4.73
2019-02-12T19:00:18.286Z,4.77
2019-02-12T19:00:18.379Z,3.88
2019-02-12T19:00:18.555Z,3.84
2019-02-12T19:00:18.704Z,3.7
2019-02-12T19:00:18.853Z,3.91
2019-02-12T19:00:18.986Z,3.74
2019-02-12T19:00:19.143Z,4.44
2019-02-12T19:00:19.303Z,4.39
2019-02-12T19:00:19.398Z,7.42
2019-02-12T19:00:19.541Z,6.74
2019-02-12T19:00:19.728Z,5.62
2019-02-12T19:00:19.883Z,4.9
2019-02-12T19:00:20.078Z,4.31
2019-02-12T19:00:20.218Z,4.74
2019-02-12T19:00:20.377Z,4.65
2019-02-12T19:00:20.506Z,4.61
2019-02-12T19:00:20.626Z,4.49
2019-02-12T19:00:20.756Z,5.11
2019-02-12T19:00:20.917Z,4.84
2019-02-12T19:00:21.064Z,4.43
2019-02-12T19:00:21.324Z,5.02
2019-02-12T19:00:21.447Z,4.97
2019-02-12T19:00:21.576Z,4.58
2019-02-12T19:00:21.681Z,5.88
2019-02-12T19:00:21.885Z,4.89
2019-02-12T19:00:22.021Z,5.22
2019-02-12T19:00:22.139Z,4.93
2019-02-12T19:00:22.255Z,5.23
2019-02-12T19:00:22.465Z,4.95
2019-02-12T19:00:22.597Z,4.95
2019-02-12T19:00:22.764Z,5.04
2019-02-12T19:00:22.893Z,4.38
2019-02-12T19:00:23.024Z,5.3
2019-02-12T19:00:23.182Z,5.23
2019-02-12T19:00:23.286Z,5.49
2019-02-12T19:00:23.438Z,5.56
2019-02-12T19:00:23.597Z,5.77
2019-02-12T19:00:23.731Z,5.76
2019-02-12T19:00:23.880Z,5.56
2019-02-12T19:00:24.019Z,5.56
2019-02-12T19:00:24.127Z,5.44
2019-02-12T19:00:24.268Z,5.64
2019-02-12T19:00:24.416Z,5.16
2019-02-12T19:00:24.550Z,5.09
2019-02-12T19:00:24.705Z,5.2
2019-02-12T19:00:24.911Z,5.17
2019-02-12T19:00:25.029Z,4.93
2019-02-12T19:00:25.126Z,5.79
2019-02-12T19:00:25.266Z,4.77
2019-02-12T19:00:25.401Z,4.77
2019-02-12T19:00:25.563Z,5.54
2019-02-12T19:00:25.750Z,4.88
2019-02-12T19:00:25.932Z,5.48
2019-02-12T19:00:26.096Z,5.72
2019-02-12T19:00:26.269Z,5.61
2019-02-12T19:00:26.369Z,5.62
2019-02-12T19:00:26.505Z,6.37
2019-02-12T19:00:26.644Z,5.88
2019-02-12T19:00:26.775Z,6.79
2019-02-12T19:00:26.905Z,7.16
2019-02-12T19:00:27.071Z,7.16
2019-02-12T19:00:27.179Z,6.19
2019-02-12T19:00:27.315Z,6.23
2019-02-12T19:00:27.476Z,7.23
2019-02-12T19:00:27.535Z,6.26
2019-02-12T19:00:27.726Z,6.82
2019-02-12T19:00:27.858Z,6.57
2019-02-12T19:00:28.024Z,7.02
2019-02-12T19:00:28.149Z,6.43
2019-02-12T19:00:28.262Z,6.6
2019-02-12T19:00:28.393Z,5.77
2019-02-12T19:00:28.558Z,6.92
2019-02-12T19:00:28.716Z,5.82
2019-02-12T19:00:28.840Z,6.31
2019-02-12T19:00:28.970Z,6.19
2019-02-12T19:00:29.139Z,6.19
2019-02-12T19:00:29.215Z,6.52
2019-02-12T19:00:29.377Z,6.84
2019-02-12T19:00:29.535Z,7.03
2019-02-12T19:00:29.704Z,6.71
2019-02-12T19:00:29.788Z,7.48
2019-02-12T19:00:29.933Z,6.95
2019-02-12T19:00:30.051Z,7.19
2019-02-12T19:00:30.198Z,7.44
2019-02-12T19:00:30.338Z,7.91
2019-02-12T19:00:30.495Z,7.91
2019-02-12T19:00:30.664Z,7.61
2019-02-12T19:00:30.777Z,7.61
2019-02-12T19:00:30.923Z,7.24
2019-02-12T19:00:31.035Z,7.31
2019-02-12T19:00:31.243Z,7.09
2019-02-12T19:00:31.404Z,7.91
2019-02-12T19:00:31.541Z,7.69
2019-02-12T19:00:31.686Z,7.68
2019-02-12T19:00:31.843Z,7.42
2019-02-12T19:00:31.980Z,7.42
2019-02-12T19:00:32.105Z,7.24
2019-02-12T19:00:32.247Z,7.5
2019-02-12T19:00:32.396Z,8.68
2019-02-12T19:00:32.603Z,7.71
2019-02-12T19:00:32.736Z,8.66
2019-02-12T19:00:32.894Z,7.66
2019-02-12T19:00:33.021Z,8.04
2019-02-12T19:00:33.182Z,7.74
2019-02-12T19:00:33.326Z,8.19
2019-02-12T19:00:33.527Z,8.29
2019-02-12T19:00:33.640Z,8.29
2019-02-12T19:00:33.754Z,7.35
2019-02-12T19:00:33.907Z,7.27
2019-02-12T19:00:34.031Z,7.25
2019-02-12T19:00:34.164Z,7.16
2019-02-12T19:00:34.331Z,7.25
2019-02-12T19:00:34.503Z,7.13
2019-02-12T19:00:34.658Z,6.22
2019-02-12T19:00:34.743Z,6.24
2019-02-12T19:00:34.877Z,6.71
2019-02-12T19:00:35.027Z,6.71
2019-02-12T19:00:35.138Z,6.49
2019-02-12T19:00:35.306Z,6.24
2019-02-12T19:00:35.440Z,5.6
2019-02-12T19:00:35.590Z,6.61
2019-02-12T19:00:35.761Z,6.8
2019-02-12T19:00:35.923Z,6.94
2019-02-12T19:00:36.016Z,5.93
2019-02-12T19:00:36.148Z,6.27
2019-02-12T19:00:36.326Z,5.79
2019-02-12T19:00:36.481Z,5.79
2019-02-12T19:00:36.580Z,8.28
2019-02-12T19:00:36.743Z,8.02
2019-02-12T19:00:36.857Z,6.91
2019-02-12T19:00:36.997Z,6.3
2019-02-12T19:00:37.170Z,6.98
2019-02-12T19:00:37.326Z,6.25
2019-02-12T19:00:37.436Z,6.33
2019-02-12T19:00:37.548Z,6.75
2019-02-12T19:00:37.681Z,6.8
2019-02-12T19:00:37.852Z,6.8
2019-02-12T19:00:38.001Z,6.55
2019-02-12T19:00:38.209Z,6.34
2019-02-12T19:00:38.330Z,6.18
2019-02-12T19:00:38.480Z,6.22
2019-02-12T19:00:38.620Z,6.18
2019-02-12T19:00:38.764Z,6.1
2019-02-12T19:00:38.939Z,6.02
2019-02-12T19:00:39.109Z,6.64
2019-02-12T19:00:39.288Z,5.99
2019-02-12T19:00:39.408Z,6.67
2019-02-12T19:00:39.548Z,6.67
2019-02-12T19:00:39.689Z,6.11
2019-02-12T19:00:39.834Z,6.75
2019-02-12T19:00:39.965Z,6.71
2019-02-12T19:00:40.137Z,6.72
2019-02-12T19:00:40.304Z,6.16
2019-02-12T19:00:40.477Z,6.25
2019-02-12T19:00:40.633Z,5.74
2019-02-12T19:00:40.741Z,6.34
2019-02-12T19:00:40.874Z,6.21
2019-02-12T19:00:41.029Z,6.21
2019-02-12T19:00:41.137Z,6.75
2019-02-12T19:00:41.362Z,5.96
2019-02-12T19:00:41.452Z,6.75
2019-02-12T19:00:41.574Z,6.24
2019-02-12T19:00:41.712Z,6.59
2019-02-12T19:00:41.859Z,6.21
2019-02-12T19:00:41.977Z,6.51
2019-02-12T19:00:42.103Z,5.85
2019-02-12T19:00:42.293Z,6.32
2019-02-12T19:00:42.420Z,6.32
2019-02-12T19:00:42.583Z,6.39
2019-02-12T19:00:42.771Z,6.54
2019-02-12T19:00:42.907Z,6.17
2019-02-12T19:00:43.094Z,6.61
2019-02-12T19:00:43.200Z,6.46
2019-02-12T19:00:43.383Z,6.28
2019-02-12T19:00:43.492Z,5.94
2019-02-12T19:00:43.632Z,5.99
2019-02-12T19:00:43.766Z,6.01
2019-02-12T19:00:43.916Z,6.01
2019-02-12T19:00:44.067Z,6.28
2019-02-12T19:00:44.198Z,5.79
2019-02-12T19:00:44.324Z,6.59
2019-02-12T19:00:44.442Z,6.77
2019-02-12T19:00:44.573Z,6.35
2019-02-12T19:00:44.734Z,6.16
2019-02-12T19:00:44.858Z,6.71
2019-02-12T19:00:45.044Z,6.26
2019-02-12T19:00:45.126Z,6.4
2019-02-12T19:00:45.282Z,5.91
2019-02-12T19:00:45.424Z,5.91
2019-02-12T19:00:45.571Z,6.32
2019-02-12T19:00:45.759Z,5.92
2019-02-12T19:00:45.886Z,6.38
2019-02-12T19:00:46.000Z,5.96
2019-02-12T19:00:46.130Z,5.91
2019-02-12T19:00:46.318Z,5.81
2019-02-12T19:00:46.395Z,6.82
2019-02-12T19:00:46.572Z,5.77
2019-02-12T19:00:46.737Z,6.19
2019-02-12T19:00:46.833Z,6.19
2019-02-12T19:00:46.965Z,6.45
2019-02-12T19:00:47.091Z,6.4
2019-02-12T19:00:47.249Z,6.24
2019-02-12T19:00:47.441Z,6.32
2019-02-12T19:00:47.575Z,6.41
2019-02-12T19:00:47.711Z,5.81
2019-02-12T19:00:47.824Z,6.82
2019-02-12T19:00:47.952Z,6.49
2019-02-12T19:00:48.115Z,6.49
2019-02-12T19:00:48.277Z,7.4
2019-02-12T19:00:48.447Z,6.6
2019-02-12T19:00:48.578Z,7
2019-02-12T19:00:48.714Z,7.02
2019-02-12T19:00:48.843Z,6.71
2019-02-12T19:00:49.033Z,6.48
2019-02-12T19:00:49.120Z,7
2019-02-12T19:00:49.277Z,6.57
2019-02-12T19:00:49.446Z,6.87
2019-02-12T19:00:49.620Z,6.87
2019-02-12T19:00:49.755Z,6.81
2019-02-12T19:00:49.967Z,6.57
2019-02-12T19:00:50.046Z,6.36
2019-02-12T19:00:50.187Z,6.93
2019-02-12T19:00:50.304Z,6.43
2019-02-12T19:00:50.453Z,7.51
2019-02-12T19:00:50.622Z,6.63
2019-02-12T19:00:50.765Z,7.12
2019-02-12T19:00:50.895Z,7.33
2019-02-12T19:00:51.015Z,7.33
2019-02-12T19:00:51.155Z,7.72
2019-02-12T19:00:51.232Z,7.4
2019-02-12T19:00:51.367Z,8.58
2019-02-12T19:00:51.496Z,7.4
2019-02-12T19:00:51.698Z,7.62
2019-02-12T19:00:51.795Z,7.88
2019-02-12T19:00:51.929Z,8.24
2019-02-12T19:00:52.122Z,8.24
2019-02-12T19:00:52.291Z,8.34
2019-02-12T19:00:52.419Z,7.65
2019-02-12T19:00:52.581Z,7.65
2019-02-12T19:00:52.703Z,8.73
2019-02-12T19:00:52.845Z,8.12
2019-02-12T19:00:52.984Z,8.7
2019-02-12T19:00:53.153Z,7.87
2019-02-12T19:00:53.218Z,7.96
2019-02-12T19:00:53.416Z,7.88
2019-02-12T19:00:53.526Z,7.93
2019-02-12T19:00:53.693Z,7.84
2019-02-12T19:00:53.785Z,7.54
2019-02-12T19:00:53.975Z,7.54
2019-02-12T19:00:54.054Z,8.14
2019-02-12T19:00:54.198Z,8.32
2019-02-12T19:00:54.343Z,7.71
2019-02-12T19:00:54.493Z,8.4
2019-02-12T19:00:54.654Z,7.78
2019-02-12T19:00:54.776Z,8.46
2019-02-12T19:00:54.944Z,7.72
2019-02-12T19:00:55.050Z,7.89
2019-02-12T19:00:55.169Z,7.51
2019-02-12T19:00:55.356Z,7.51
2019-02-12T19:00:55.489Z,7.82
2019-02-12T19:00:55.594Z,7.43
2019-02-12T19:00:55.742Z,6.98
2019-02-12T19:00:55.926Z,7.25
2019-02-12T19:00:56.004Z,7.36
2019-02-12T19:00:56.162Z,6.97
2019-02-12T19:00:56.319Z,7.23
2019-02-12T19:00:56.484Z,6.95
2019-02-12T19:00:56.572Z,7.35
2019-02-12T19:00:56.742Z,7.35
2019-02-12T19:00:56.886Z,7.61
2019-02-12T19:00:57.021Z,7.49
2019-02-12T19:00:57.167Z,17.15
2019-02-12T19:00:57.298Z,16.68
2019-02-12T19:00:57.423Z,17.37
2019-02-12T19:00:57.547Z,16.03
2019-02-12T19:00:57.691Z,14.87
2019-02-12T19:00:57.863Z,14.84
2019-02-12T19:00:58.046Z,14.6
2019-02-12T19:00:58.246Z,15.1
2019-02-12T19:00:58.362Z,15.1
2019-02-12T19:00:58.480Z,16.39
2019-02-12T19:00:58.645Z,15.48
2019-02-12T19:00:58.763Z,17.2
2019-02-12T19:00:58.972Z,17.56
2019-02-12T19:00:59.111Z,19.06
2019-02-12T19:00:59.254Z,18.65
2019-02-12T19:00:59.423Z,19.83
2019-02-12T19:00:59.560Z,19.08
2019-02-12T19:00:59.710Z,19.74
2019-02-12T19:00:59.874Z,19.74
2019-02-12T19:00:59.960Z,19.16
2019-02-12T19:01:00.106Z,20.73
2019-02-12T19:01:00.304Z,19.57
2019-02-12T19:01:00.462Z,22.31
2019-02-12T19:01:00.619Z,21.09
2019-02-12T19:01:00.704Z,22.15
2019-02-12T19:01:00.904Z,18.73
2019-02-12T19:01:00.978Z,20.21
2019-02-12T19:01:01.121Z,19.38
2019-02-12T19:01:01.282Z,19.52
2019-02-12T19:01:01.419Z,19.52
2019-02-12T19:01:01.579Z,20.57
2019-02-12T19:01:01.663Z,22.76
2019-02-12T19:01:01.788Z,21.26
2019-02-12T19:01:01.976Z,19.44
2019-02-12T19:01:02.194Z,19.38
2019-02-12T19:01:02.346Z,20.16
2019-02-12T19:01:02.486Z,20.33
2019-02-12T19:01:02.602Z,20.29
2019-02-12T19:01:02.766Z,20.11
2019-02-12T19:01:02.912Z,20.11
2019-02-12T19:01:03.022Z,20.29
2019-02-12T19:01:03.198Z,20.1
2019-02-12T19:01:03.359Z,20.95
2019-02-12T19:01:03.519Z,20.64
2019-02-12T19:01:03.639Z,21.33
2019-02-12T19:01:03.798Z,21.48
2019-02-12T19:01:03.953Z,20.4
2019-02-12T19:01:04.106Z,19.68
2019-02-12T19:01:04.202Z,20.35
2019-02-12T19:01:04.325Z,20.35
2019-02-12T19:01:04.465Z,19.45
2019-02-12T19:01:04.596Z,19.42
2019-02-12T19:01:04.730Z,19.4
2019-02-12T19:01:04.874Z,19.37
2019-02-12T19:01:05.063Z,18.8
2019-02-12T19:01:05.238Z,18.48
2019-02-12T19:01:05.371Z,18.08
2019-02-12T19:01:05.534Z,17.37
2019-02-12T19:01:05.655Z,17.9
2019-02-12T19:01:05.781Z,17.9
2019-02-12T19:01:05.909Z,17.21
2019-02-12T19:01:06.066Z,18.77
2019-02-12T19:01:06.236Z,19.11
2019-02-12T19:01:06.398Z,18.66
2019-02-12T19:01:06.548Z,20.25
2019-02-12T19:01:06.645Z,17.54
2019-02-12T19:01:06.802Z,18.7
2019-02-12T19:01:06.871Z,18.47
2019-02-12T19:01:07.035Z,22.05
2019-02-12T19:01:07.180Z,22.72
2019-02-12T19:01:07.326Z,22.72
2019-02-12T19:01:07.472Z,24.47
2019-02-12T19:01:07.574Z,22.14
2019-02-12T19:01:07.707Z,17.26
2019-02-12T19:01:07.841Z,16.3
2019-02-12T19:01:08.025Z,17.59
2019-02-12T19:01:08.171Z,16.44
2019-02-12T19:01:08.294Z,16.76
2019-02-12T19:01:08.428Z,15.92
2019-02-12T19:01:08.608Z,16.72
2019-02-12T19:01:08.747Z,16.72
2019-02-12T19:01:08.942Z,15.66
2019-02-12T19:01:09.052Z,16.12
2019-02-12T19:01:09.269Z,16.11
2019-02-12T19:01:09.404Z,18.57
2019-02-12T19:01:09.445Z,18.55
2019-02-12T19:01:09.590Z,18.78
2019-02-12T19:01:09.770Z,18.53
2019-02-12T19:01:09.911Z,15.84
2019-02-12T19:01:10.021Z,16.4
2019-02-12T19:01:10.187Z,16.4
2019-02-12T19:01:10.314Z,18.55
2019-02-12T19:01:10.469Z,18.52
2019-02-12T19:01:10.624Z,16.05
2019-02-12T19:01:10.804Z,13.16
2019-02-12T19:01:10.943Z,13.18
2019-02-12T19:01:11.142Z,12.88
2019-02-12T19:01:11.270Z,12.88
2019-02-12T19:01:11.441Z,11.94
2019-02-12T19:01:11.594Z,12.42
2019-02-12T19:01:11.904Z,12.39
2019-02-12T19:01:11.970Z,12.16
2019-02-12T19:01:12.170Z,11.2
2019-02-12T19:01:12.316Z,11.32
2019-02-12T19:01:12.495Z,11.86
2019-02-12T19:01:12.614Z,11.03
2019-02-12T19:01:12.748Z,10.48
2019-02-12T19:01:12.934Z,6.1
2019-02-12T19:01:18.538Z,5.56
2019-02-12T19:01:18.706Z,4.84
2019-02-12T19:01:18.888Z,4.84
2019-02-12T19:01:19.044Z,4.41
2019-02-12T19:01:19.190Z,7.36
2019-02-12T19:01:19.331Z,6.49
2019-02-12T19:01:19.550Z,3.36
2019-02-12T19:01:19.662Z,3.62
2019-02-12T19:01:19.854Z,3.09
2019-02-12T19:01:19.998Z,2.66
2019-02-12T19:01:20.118Z,2.15
2019-02-12T19:01:20.238Z,1.59
2019-02-12T19:01:20.631Z,1.59
2019-02-12T19:01:20.954Z,1.82
2019-02-12T19:01:21.226Z,1.5
2019-02-12T19:01:21.698Z,0.94
2019-02-12T19:01:21.826Z,1
2019-02-12T19:01:21.983Z,1.27
2019-02-12T19:01:22.113Z,0.96
2019-02-12T19:01:22.264Z,0.78
2019-02-12T19:01:22.416Z,0.63
2019-02-12T19:01:22.535Z,1.3
2019-02-12T19:01:22.670Z,1.3
2019-02-12T19:01:22.827Z,0.73
2019-02-12T19:01:22.964Z,0.95
2019-02-12T19:01:23.104Z,0.6
2019-02-12T19:01:23.263Z,1.51
2019-02-12T19:01:23.319Z,1.05
2019-02-12T19:01:23.457Z,0.93
2019-02-12T19:01:23.625Z,0.72
2019-02-12T19:01:23.742Z,1.03
2019-02-12T19:01:23.928Z,0.82
2019-02-12T19:01:24.069Z,0.82
2019-02-12T19:01:24.191Z,0.75
2019-02-12T19:01:24.362Z,0.76
2019-02-12T19:01:24.506Z,1.01
2019-02-12T19:01:24.636Z,1.52
2019-02-12T19:01:24.778Z,1.9
2019-02-12T19:01:24.931Z,2.02
2019-02-12T19:01:25.144Z,1.43
2019-02-12T19:01:25.301Z,1.03
2019-02-12T19:01:25.431Z,1.11
2019-02-12T19:01:25.576Z,1
2019-02-12T19:01:25.715Z,1
2019-02-12T19:01:25.867Z,1.08
2019-02-12T19:01:26.002Z,0.89
2019-02-12T19:01:26.180Z,1.04
2019-02-12T19:01:26.369Z,0.78
2019-02-12T19:01:26.549Z,1.28
2019-02-12T19:01:26.728Z,1.01
2019-02-12T19:01:26.807Z,0.99
2019-02-12T19:01:26.975Z,0.79
2019-02-12T19:01:27.226Z,1.18
2019-02-12T19:01:27.312Z,1.18
2019-02-12T19:01:27.467Z,0.79
2019-02-12T19:01:27.651Z,1.14
2019-02-12T19:01:27.790Z,0.94
2019-02-12T19:01:27.858Z,0.94
2019-02-12T19:01:28.070Z,0.88
2019-02-12T19:01:28.224Z,0.69
2019-02-12T19:01:28.359Z,0.54
2019-02-12T19:01:28.464Z,0.87
2019-02-12T19:01:28.623Z,0.91
2019-02-12T19:01:28.759Z,0.91
2019-02-12T19:01:28.906Z,0.82
2019-02-12T19:01:29.008Z,0.72
2019-02-12T19:01:29.147Z,0.79
2019-02-12T19:01:29.311Z,0.75
2019-02-12T19:01:29.456Z,0.8
2019-02-12T19:01:29.600Z,0.6
2019-02-12T19:01:29.747Z,0.97
2019-02-12T19:01:29.934Z,0.79
2019-02-12T19:01:30.098Z,0.84
2019-02-12T19:01:30.217Z,0.84
2019-02-12T19:01:30.373Z,0.84
2019-02-12T19:01:30.532Z,0.89
2019-02-12T19:01:30.660Z,0.54
2019-02-12T19:01:30.848Z,0.84
2019-02-12T19:01:31.006Z,0.75
2019-02-12T19:01:31.147Z,1.11
2019-02-12T19:01:31.297Z,0.87
2019-02-12T19:01:31.456Z,1.09
2019-02-12T19:01:31.598Z,0.78
2019-02-12T19:01:31.805Z,0.78
2019-02-12T19:01:31.962Z,1.06
2019-02-12T19:01:32.117Z,0.77
2019-02-12T19:01:32.231Z,1.48
2019-02-12T19:01:32.394Z,1.38
2019-02-12T19:01:32.533Z,1.31
2019-02-12T19:01:32.734Z,1.3
2019-02-12T19:01:32.842Z,1.06
2019-02-12T19:01:32.961Z,1.04
2019-02-12T19:01:33.096Z,1.46
2019-02-12T19:01:33.237Z,1.49
2019-02-12T19:01:33.370Z,1.49
2019-02-12T19:01:33.482Z,1.07
2019-02-12T19:01:33.668Z,0.89
2019-02-12T19:01:33.799Z,1.38
2019-02-12T19:01:33.929Z,1.45
2019-02-12T19:01:34.049Z,1.4
2019-02-12T19:01:34.255Z,1.28
2019-02-12T19:01:34.402Z,1.33
2019-02-12T19:01:34.615Z,1.02
2019-02-12T19:01:34.758Z,1.04
2019-02-12T19:01:34.869Z,1.04
2019-02-12T19:01:34.984Z,1
2019-02-12T19:01:35.109Z,1.24
2019-02-12T19:01:35.263Z,1.28
2019-02-12T19:01:35.444Z,1.6
2019-02-12T19:01:35.621Z,1.39
2019-02-12T19:01:35.711Z,1.46
2019-02-12T19:01:35.831Z,1.11
2019-02-12T19:01:35.974Z,1.45
2019-02-12T19:01:36.196Z,1.23
2019-02-12T19:01:36.338Z,1.23
2019-02-12T19:01:36.490Z,1.7
2019-02-12T19:01:36.647Z,1.6
2019-02-12T19:01:36.760Z,1.34
2019-02-12T19:01:36.884Z,1.48
2019-02-12T19:01:37.021Z,1.75
2019-02-12T19:01:37.146Z,1.94
2019-02-12T19:01:37.341Z,1.79
2019-02-12T19:01:37.479Z,1.61
2019-02-12T19:01:37.632Z,2.07
2019-02-12T19:01:37.820Z,2.07
2019-02-12T19:01:37.881Z,1.84
2019-02-12T19:01:38.072Z,2.78
2019-02-12T19:01:38.209Z,2.39
2019-02-12T19:01:38.366Z,4.75
2019-02-12T19:01:38.521Z,4.49
2019-02-12T19:01:38.652Z,6.97
2019-02-12T19:01:38.782Z,5.76
2019-02-12T19:01:38.903Z,4.73
2019-02-12T19:01:39.040Z,4.67
2019-02-12T19:01:39.207Z,5.38
2019-02-12T19:01:39.429Z,5.38
2019-02-12T19:01:39.519Z,3.47
2019-02-12T19:01:39.652Z,4.44
2019-02-12T19:01:39.843Z,3.89
2019-02-12T19:01:39.969Z,2.1
2019-02-12T19:01:40.084Z,1.88
2019-02-12T19:01:40.255Z,3.14
2019-02-12T19:01:40.384Z,2.68
2019-02-12T19:01:40.535Z,3.54
2019-02-12T19:01:40.646Z,2.6
2019-02-12T19:01:40.767Z,2.6
2019-02-12T19:01:40.927Z,3.26
2019-02-12T19:01:41.083Z,3.37
2019-02-12T19:01:41.262Z,3.02
2019-02-12T19:01:41.403Z,3.61
2019-02-12T19:01:41.608Z,4.77
2019-02-12T19:01:41.734Z,3.46
2019-02-12T19:01:41.839Z,2.82
2019-02-12T19:01:41.973Z,2.76
2019-02-12T19:01:42.079Z,5.16
2019-02-12T19:01:42.289Z,5.16
2019-02-12T19:01:42.455Z,5.09
2019-02-12T19:01:42.602Z,5.63
2019-02-12T19:01:42.719Z,5.33
2019-02-12T19:01:42.835Z,7.46
2019-02-12T19:01:42.992Z,7.9
2019-02-12T19:01:43.123Z,11.44
2019-02-12T19:01:43.268Z,10.63
2019-02-12T19:01:43.448Z,10.55
2019-02-12T19:01:43.558Z,9.25
2019-02-12T19:01:43.701Z,9.25
2019-02-12T19:01:43.831Z,8.23
2019-02-12T19:01:43.979Z,7.89
2019-02-12T19:01:44.088Z,7.26
2019-02-12T19:01:44.271Z,6.59
2019-02-12T19:01:44.457Z,7.29
2019-02-12T19:01:44.616Z,6.71
2019-02-12T19:01:44.727Z,6.54
2019-02-12T19:01:44.898Z,5.28
2019-02-12T19:01:45.007Z,4.26
2019-02-12T19:01:45.138Z,4.26
2019-02-12T19:01:45.303Z,4.05
2019-02-12T19:01:45.481Z,2.82
2019-02-12T19:01:45.598Z,2.77
2019-02-12T19:01:45.749Z,3.11
2019-02-12T19:01:45.896Z,2.81
2019-02-12T19:01:46.006Z,1.71
2019-02-12T19:01:46.135Z,1.62
2019-02-12T19:01:46.309Z,1.62
2019-02-12T19:01:46.480Z,1.36
2019-02-12T19:01:46.625Z,1.79
2019-02-12T19:01:46.771Z,1.79
2019-02-12T19:01:46.907Z,1.75
2019-02-12T19:01:47.103Z,1.53
2019-02-12T19:01:47.192Z,1.23
2019-02-12T19:01:47.329Z,1.39
2019-02-12T19:01:47.455Z,0.87
2019-02-12T19:01:47.623Z,1.01
2019-02-12T19:01:47.770Z,1
2019-02-12T19:01:47.886Z,1.15
2019-02-12T19:01:48.026Z,0.79
2019-02-12T19:01:48.233Z,0.79
2019-02-12T19:01:48.326Z,1.21
2019-02-12T19:01:48.513Z,0.9
2019-02-12T19:01:48.665Z,1.44
2019-02-12T19:01:48.817Z,1.33
2019-02-12T19:01:48.927Z,1.02
2019-02-12T19:01:49.096Z,0.83
2019-02-12T19:01:49.248Z,1.2
2019-02-12T19:01:49.401Z,0.93
2019-02-12T19:01:49.507Z,1.06
2019-02-12T19:01:49.630Z,1.06
2019-02-12T19:01:49.758Z,0.83
2019-02-12T19:01:49.898Z,1.01
2019-02-12T19:01:50.018Z,1.02
2019-02-12T19:01:50.168Z,1.38
2019-02-12T19:01:50.309Z,1.05
2019-02-12T19:01:50.401Z,1.58
2019-02-12T19:01:50.582Z,0.98
2019-02-12T19:01:50.654Z,0.99
2019-02-12T19:01:50.833Z,0.6
2019-02-12T19:01:51.010Z,0.99
2019-02-12T19:01:51.099Z,0.99
2019-02-12T19:01:51.218Z,0.88
2019-02-12T19:01:51.360Z,1.04
2019-02-12T19:01:51.492Z,0.78
2019-02-12T19:01:51.635Z,0.96
2019-02-12T19:01:51.773Z,0.8
2019-02-12T19:01:51.938Z,0.81
2019-02-12T19:01:52.047Z,0.67
2019-02-12T19:01:52.159Z,1.33
2019-02-12T19:01:52.323Z,1.11
2019-02-12T19:01:52.461Z,1.11
2019-02-12T19:01:52.609Z,1.32
2019-02-12T19:01:52.760Z,1.54
2019-02-12T19:01:52.910Z,0.91
2019-02-12T19:01:53.142Z,0.7
2019-02-12T19:01:53.204Z,1
2019-02-12T19:01:53.353Z,0.84
2019-02-12T19:01:53.535Z,1.12
2019-02-12T19:01:53.683Z,0.7
2019-02-12T19:01:53.823Z,1.47
2019-02-12T19:01:53.934Z,1.47
2019-02-12T19:01:54.065Z,0.71
2019-02-12T19:01:54.198Z,0.86
2019-02-12T19:01:54.377Z,0.72
2019-02-12T19:01:54.488Z,1.39
2019-02-12T19:01:54.644Z,0.73
2019-02-12T19:01:54.745Z,0.85
2019-02-12T19:01:54.865Z,0.69
2019-02-12T19:01:55.012Z,1.05
2019-02-12T19:01:55.165Z,0.66
2019-02-12T19:01:55.333Z,0.66
2019-02-12T19:01:55.441Z,0.91
2019-02-12T19:01:55.607Z,0.75
2019-02-12T19:01:55.746Z,1.11
2019-02-12T19:01:55.914Z,1.05
2019-02-12T19:01:56.120Z,1.03
2019-02-12T19:01:56.241Z,0.93
2019-02-12T19:01:56.407Z,1.08
2019-02-12T19:01:56.540Z,0.83
2019-02-12T19:01:56.693Z,0.99
2019-02-12T19:01:56.788Z,1.06
2019-02-12T19:01:56.934Z,1.06
2019-02-12T19:01:57.113Z,1.68
2019-02-12T19:01:57.278Z,1.76
2019-02-12T19:01:57.372Z,1.95
2019-02-12T19:01:57.510Z,1.55
2019-02-12T19:01:57.644Z,1.72
2019-02-12T19:01:57.825Z,1.73
2019-02-12T19:01:57.962Z,1.73
2019-02-12T19:01:58.118Z,1.86
2019-02-12T19:01:58.207Z,2.98
2019-02-12T19:01:58.340Z,2.98
2019-02-12T19:01:58.478Z,2.7
2019-02-12T19:01:58.649Z,2.97
2019-02-12T19:01:58.782Z,3.56
2019-02-12T19:01:58.915Z,4.54
2019-02-12T19:01:59.058Z,3.92
2019-02-12T19:01:59.205Z,4.61
2019-02-12T19:01:59.334Z,5
2019-02-12T19:01:59.443Z,5.16
2019-02-12T19:01:59.542Z,5.04
2019-02-12T19:01:59.739Z,5.04
2019-02-12T19:02:00.016Z,4.79